Terminal Aerodrome Forecast
Issued by NWS

Home | Current Version | Previous Version | Text Only | Print | Product List | Glossary On
Versions: 1 2 3 4 5 6 7 8 9 10 11 12 13
000
FTUS44 KLIX 252300
TAFMCB
TAF
KMCB 252320Z 2600/2624 VRB05KT P6SM FEW045 SCT090
     FM260700 00000KT P6SM SCT008
      TEMPO 2610/2613 3SM BR BKN005
     FM261500 VRB03KT P6SM SCT045=

USA.gov is the U.S. government's official web portal to all federal, state and local government web resources and services.